Používaním stránok prevádzkovaných PROFIPILOT, s.r.o. súhlasíte s používaním cookies, ktoré nám pomáhajú zabezpečiť lepšie služby.OK

Briefing

MAPA | METAR | TAF | METEO SITUÁCIA
MAPA | METAR | TAF | METEO SITUÁCIA

Predpoveď na dnes

NOC: Prevažne oblačno, spočiatku zmenšená oblačnosť. Ojedinele slabý dážď alebo prehánky, od výšky cca 1300 m sneženie. Najnižšia nočná teplota 4 až -1, na juhozápade okolo 6 st. Prevažne južný vietor 2 až 7 m/s (5 až 25 km/h), v Banskobystrickom kraji väčšinou slabý vietor. DEŇ: Polooblačno až oblačno, ráno na strednom a východnom Slovensku miestami až zamračené. Ojedinele prehánky alebo búrky. Oteplenie. Najvyššia denná teplota 16 až 21, v južnej polovici západného Slovenska a miestami aj v Juhoslovenskej kotline 21 až 24 st. Teplota na horách vo výške 1500 m okolo 7 st. Prevažne južný vietor 4 až 10 m/s, v nárazoch miestami okolo 15, na severe ojedinele okolo 20 m/s (15 až 35, nárazy okolo 55, sever 70 km). Na hrebeňoch hôr búrlivý vietor, v Tatrách večer až víchrica. Predpokladané množstvo zrážok: NOC: do 2 mm / od cca 1300 m do 2 cm snehu. DEŇ: 0 až 4, pri búrke ojedinele 10 mm.

SHMÚ, OMPaV, MA 24.4.2017 20:45 LSEČ

MAPA | METAR | TAF | METEO SITUÁCIA

TAF - Letisková predpoveď

24.04.2017 - 23:00 UTC (Včera)

TAF LZIB 242300Z 2500/2600 03008KT CAVOK
     BECMG 2507/2509 12012KT
     TEMPO 2509/2517 13015G25KT
     PROB40 TEMPO 2511/2516 9999 FEW040CB SCT070=
 TAF LZKZ 242300Z 2500/2600 20006KT CAVOK
     BECMG 2500/2502 9999 BKN040
     PROB30 TEMPO 2503/2508 -RA BKN030
     BECMG 2508/2510 17012KT SCT045
     PROB40 TEMPO 2512/2516 VRB15G25KT 5000 TSRA BKN027 FEW030CB=
 TAF LZTT 242300Z 2500/2600 24010KT 9999 SCT055
     PROB40 TEMPO 2502/2506 5000 -RASN BKN030
     BECMG 2507/2509 23011KT FEW015 BKN050
     PROB40 TEMPO 2510/2517 28015G25KT 5000 TSRA BKN023 FEW027CB=
 

24.04.2017 - 14:00 UTC (Včera)

TAF LZSL 241400Z 2415/2500 30007KT 9999 SCT050
     PROB40 TEMPO 2415/2418 01013KT SHRA BKN027
     BECMG 2417/2419 15005KT
     BECMG 2421/2423 BKN023
     TEMPO 2423/2500 -RA BKN018=
 TAF LZPP 241400Z 2415/2500 21009KT CAVOK
     TEMPO 2415/2418 17017KT 9999 SCT045=
 TAF LZZI 241400Z 2415/2500 26006KT 9999 FEW020 BKN050
     PROB40 TEMPO 2415/2416 25016KT SHRA BKN025
     TEMPO 2423/2500 -RA BKN016=
 
MAPA | METAR | TAF | METEO SITUÁCIA

METAR - Letisková meteo správa

Letisková meteorologická správa METAR

Meteorologické informácie z ďalších profesionálnych meteorologických staníc SHMÚ zobrazené v tvare zodpovedajúcom pravidlám kódovania správ METAR sú uvedené v položke „METSYN Informácie o správe METAR

25.04.2017 - 00:30 UTC

METAR LZIB 250030Z 04007KT CAVOK 06/02 Q1011=
 METAR LZKZ 250030Z 19006KT CAVOK 03/00 Q1016=
 METAR LZPP 250030Z AUTO 12011KT 9999 FEW220/// 10/02 Q1011=
 METAR LZSL 250030Z 03005KT 360V070 9999 BKN041 06/M00 Q1014=
 METAR LZTT 250030Z 24009KT 9999 FEW040 05/M01 Q1013=
 METAR LZZI 250030Z VRB01KT 9999 FEW050 02/00 Q1012=
 

25.04.2017 - 00:00 UTC

METAR LZIB 250000Z 03005KT CAVOK 06/02 Q1011=
 METAR LZKZ 250000Z 20003KT CAVOK 04/M00 Q1016=
 METAR LZPP 250000Z AUTO 13010KT 9999 OVC240/// 10/02 Q1011=
 METAR LZSL 250000Z 02006KT 9999 BKN051 06/00 Q1015=
 METAR LZTT 250000Z 23010KT CAVOK 05/M01 Q1013=
 METAR LZZI 250000Z VRB02KT 9999 BKN050 02/01 Q1012=
 
Údaje nie sú momentálne k dispozícii
načítavam...